Dunlap Lake, Illinois
Current Conditions -  °F | °C
As of 4:35 AM on Monday 20 Oct 2014 (Local Time) from KALN Reporting Station
Scattered Clouds Scattered Clouds  
Wind Chill: 54°   Ceiling: Unl
Heat Index: 54°   Visibility: 10mi
Dew Point: 47°   Wind: 7mph
Humidity: 78%   Direction: 200°SSW
Pressure: 29.97"   Gusts: NA
Location:  38.8031°N, 89.9742°W
Report Text: KALN 200935Z AUTO 20006KT 10SM SCT110 12/08 A2997 RMK AO2 T01210083
Loading
Personal Weather Stations






























Interactive Weather Map New forecast layout! Learn more

10-Day Weather Forecast

Advertisements
Track Severe Weather on mobile